📊 Raw Sensor Data

Showing records 51651 to 51675 of 85,151 total

ID Distance (ft) Battery V Battery A Int Temp (°F) Int Humid (%) Ext Temp (°F) Solar V RSSI SNR Time Stamp
33513 14.7 3.89 -5 56 42 57 0.00 -69 8 02/26/2025 07:15 PM
33512 14.7 3.89 -5 58 42 59 0.10 -70 8 02/26/2025 07:00 PM
33511 14.7 3.95 -5 59 43 61 0.10 -70 8 02/26/2025 06:45 PM
33510 14.7 3.95 -5 60 44 61 0.00 -70 8 02/26/2025 06:30 PM
33509 14.8 3.95 -5 62 46 61 0.10 -70 7 02/26/2025 06:15 PM
33508 14.8 3.97 0 70 44 65 4.50 -70 7 02/26/2025 05:45 PM
33507 14.8 4.01 10 76 42 71 4.50 -70 8 02/26/2025 05:30 PM
33506 14.9 4.02 61 80 40 74 4.50 -70 7 02/26/2025 05:15 PM
33505 14.9 4.09 65 82 40 70 4.50 -70 8 02/26/2025 05:00 PM
33504 14.9 3.93 9 83 40 71 5.10 -70 8 02/26/2025 04:45 PM
33503 14.9 4.05 9 85 39 71 5.10 -70 8 02/26/2025 04:30 PM
33502 14.9 3.93 0 86 39 72 5.10 -70 8 02/26/2025 04:15 PM
33501 14.9 3.93 0 90 36 71 5.10 -71 7 02/26/2025 04:00 PM
33500 14.9 3.93 9 92 35 72 5.10 -70 8 02/26/2025 03:45 PM
33499 15.0 3.93 10 91 35 73 5.10 -70 8 02/26/2025 03:30 PM
33498 15.0 3.93 10 91 35 76 5.10 -71 8 02/26/2025 03:15 PM
33497 15.0 4.12 6 90 34 75 5.10 -71 7 02/26/2025 03:00 PM
33496 15.0 3.93 10 89 34 73 5.10 -70 7 02/26/2025 02:45 PM
33495 15.0 3.93 0 87 34 73 5.10 -70 8 02/26/2025 02:30 PM
33494 15.0 3.93 0 86 34 72 5.10 -70 8 02/26/2025 02:15 PM
33493 15.0 3.93 10 85 34 74 5.10 -71 7 02/26/2025 02:00 PM
33492 15.0 4.04 10 83 34 72 5.10 -71 8 02/26/2025 01:45 PM
33491 15.0 3.95 10 81 34 71 5.10 -70 8 02/26/2025 01:30 PM
33490 14.9 3.92 10 80 34 70 5.10 -70 7 02/26/2025 01:15 PM
33489 14.9 4.01 10 79 34 69 5.10 -71 8 02/26/2025 01:00 PM